WXM80 ListenWXM80 Stop

You find our weather info also at:

UK Metoffice

WeatherCloud

Weather Underground

Northeastern Weather Network

AWEKAS

Citizen Weather Observer Program (CWOP)

HAMweather, WeatherForYou, PWS Weather


Weather Underground History page Text

Daily Summary for May 22, 2016 Units:  English    Metric   Both
« Previous Day
Next Day »
Daily Weekly Monthly Yearly Custom
  High: Low: Average:
Temperature: 72.4 °F 53.5 °F 60.6 °F
Dew Point: 57.4 °F 50.5 °F 53.6 °F
Humidity: 94 % 51 % 79 %
Wind Speed: 6.0 mph 0.0 mph 1.2 mph
Wind Gust: 9.2 mph - -
Wind:- - East
Pressure: 29.87 in 29.78 in -
Precipitation: 0.11 in    
Historical Graphs
 
 
Tabular Data for May 22, 2016
Time Temperature Dew Point Pressure Wind Wind Speed Wind Gust Humidity Rainfall Rate (Hourly)
00:00 55.6 °F 53.6 °F 29.86 in ENE 1.4 mph 3.5 mph 93 % 0.00 in
00:05 55.6 °F 53.6 °F 29.86 in ENE 1.6 mph 4.0 mph 93 % 0.00 in
00:10 55.6 °F 53.6 °F 29.86 in NE 0.9 mph 2.3 mph 93 % 0.00 in
00:16 55.5 °F 53.5 °F 29.85 in NE 0.8 mph 2.0 mph 93 % 0.00 in
00:21 55.5 °F 53.5 °F 29.85 in ENE 2.0 mph 3.5 mph 93 % 0.00 in
00:26 55.4 °F 53.4 °F 29.85 in ENE 2.4 mph 4.6 mph 93 % 0.00 in
00:31 55.4 °F 53.4 °F 29.85 in NE 3.2 mph 4.6 mph 93 % 0.00 in
00:36 55.4 °F 53.4 °F 29.85 in NE 3.4 mph 5.8 mph 93 % 0.00 in
00:41 55.3 °F 53.3 °F 29.84 in ENE 2.7 mph 3.5 mph 93 % 0.00 in
00:46 55.3 °F 53.0 °F 29.84 in ENE 3.5 mph 4.0 mph 92 % 0.00 in
00:51 55.3 °F 53.0 °F 29.84 in ENE 2.2 mph 3.5 mph 92 % 0.00 in
00:56 55.3 °F 53.0 °F 29.83 in NE 2.0 mph 3.5 mph 92 % 0.00 in
01:01 55.3 °F 53.0 °F 29.83 in Calm     92 % 0.00 in
01:07 55.3 °F 53.0 °F 29.82 in NE 0.2 mph 2.3 mph 92 % 0.00 in
01:12 55.3 °F 53.0 °F 29.83 in Calm   2.3 mph 92 % 0.00 in
01:17 55.3 °F 53.0 °F 29.82 in NE 1.7 mph 2.3 mph 92 % 0.00 in
01:22 55.3 °F 53.0 °F 29.82 in NE 1.6 mph 3.5 mph 92 % 0.00 in
01:27 55.3 °F 53.0 °F 29.82 in NE 0.5 mph 2.3 mph 92 % 0.00 in
01:32 55.3 °F 53.0 °F 29.82 in Calm     92 % 0.00 in
01:37 55.3 °F 53.0 °F 29.81 in NE 0.1 mph 1.0 mph 92 % 0.00 in
01:42 55.3 °F 53.0 °F 29.81 in Calm     92 % 0.00 in
01:47 55.2 °F 52.9 °F 29.81 in Calm     92 % 0.00 in
01:52 55.2 °F 52.9 °F 29.80 in NNE 0.6 mph 1.2 mph 92 % 0.00 in
01:58 55.1 °F 52.8 °F 29.80 in NNE 1.2 mph 2.3 mph 92 % 0.00 in
02:03 55.1 °F 52.8 °F 29.80 in NNE 1.4 mph 2.3 mph 92 % 0.00 in
02:13 54.9 °F 52.3 °F 29.80 in ENE 3.2 mph 7.0 mph 91 % 0.00 in
02:18 54.9 °F 52.0 °F 29.80 in NE 2.8 mph 5.0 mph 90 % 0.00 in
02:23 54.9 °F 52.0 °F 29.80 in NE 2.9 mph 4.6 mph 90 % 0.00 in
02:28 54.9 °F 52.0 °F 29.79 in ENE 2.0 mph 3.5 mph 90 % 0.00 in
02:33 55.0 °F 52.1 °F 29.80 in ENE 2.2 mph 3.5 mph 90 % 0.00 in
02:38 55.0 °F 52.1 °F 29.79 in ENE 1.2 mph 4.6 mph 90 % 0.00 in
02:43 55.0 °F 52.1 °F 29.78 in ENE 1.4 mph 2.3 mph 90 % 0.00 in
02:49 55.0 °F 52.1 °F 29.78 in ENE 1.0 mph 2.3 mph 90 % 0.00 in
02:54 55.0 °F 52.1 °F 29.78 in NE 2.5 mph 3.5 mph 90 % 0.00 in
02:59 55.0 °F 52.1 °F 29.78 in ENE 3.7 mph 6.9 mph 90 % 0.00 in
03:04 55.0 °F 52.1 °F 29.78 in ENE 2.8 mph 3.5 mph 90 % 0.00 in
03:09 55.0 °F 51.8 °F 29.78 in NE 2.0 mph 3.5 mph 89 % 0.00 in
03:14 55.1 °F 52.2 °F 29.79 in ENE 2.7 mph 4.6 mph 90 % 0.00 in
03:19 55.1 °F 52.2 °F 29.78 in NE 0.3 mph 2.3 mph 90 % 0.00 in
03:24 55.0 °F 52.1 °F 29.78 in NNE 1.9 mph 3.5 mph 90 % 0.00 in
03:29 55.1 °F 52.2 °F 29.78 in NNE 1.4 mph 3.5 mph 90 % 0.00 in
03:34 55.0 °F 51.8 °F 29.79 in NE 3.6 mph 4.0 mph 89 % 0.00 in
03:40 54.9 °F 51.4 °F 29.78 in NNE 4.0 mph 6.9 mph 88 % 0.00 in
03:45 54.9 °F 51.4 °F 29.78 in NNE 2.0 mph 3.5 mph 88 % 0.00 in
03:50 54.9 °F 51.4 °F 29.78 in NNW 2.8 mph 5.8 mph 88 % 0.00 in
03:55 54.9 °F 51.4 °F 29.78 in North 2.8 mph 4.6 mph 88 % 0.00 in
04:00 54.9 °F 51.4 °F 29.78 in North 2.7 mph 6.0 mph 88 % 0.00 in
04:05 55.0 °F 51.5 °F 29.78 in NNE 1.0 mph 3.5 mph 88 % 0.00 in
04:10 55.0 °F 51.5 °F 29.78 in Calm     88 % 0.00 in
04:15 55.0 °F 51.5 °F 29.78 in NNE 0.6 mph 2.3 mph 88 % 0.00 in
04:20 54.9 °F 51.4 °F 29.78 in NW 0.9 mph 2.3 mph 88 % 0.00 in
04:25 54.9 °F 51.4 °F 29.78 in NNE 2.5 mph 4.6 mph 88 % 0.00 in
04:31 54.9 °F 51.1 °F 29.78 in North 2.8 mph 4.0 mph 87 % 0.00 in
04:36 54.8 °F 51.0 °F 29.78 in North 3.4 mph 5.8 mph 87 % 0.00 in
04:41 54.7 °F 50.6 °F 29.78 in North 4.0 mph 6.9 mph 86 % 0.00 in
04:46 54.7 °F 50.6 °F 29.78 in NNE 2.7 mph 5.8 mph 86 % 0.00 in
04:51 54.7 °F 50.6 °F 29.78 in NE 4.0 mph 5.8 mph 86 % 0.00 in
04:56 54.6 °F 50.5 °F 29.78 in NNE 3.0 mph 5.8 mph 86 % 0.00 in
05:01 54.7 °F 50.6 °F 29.78 in North 4.3 mph 5.8 mph 86 % 0.00 in
05:06 54.7 °F 50.9 °F 29.78 in NNE 3.7 mph 8.1 mph 87 % 0.00 in
05:11 54.6 °F 50.8 °F 29.78 in NNE 3.1 mph 5.8 mph 87 % 0.00 in
05:22 54.4 °F 50.9 °F 29.79 in NNE 3.5 mph 5.0 mph 88 % 0.00 in
05:27 54.4 °F 50.9 °F 29.79 in North 6.0 mph 8.1 mph 88 % 0.00 in
05:37 54.2 °F 50.7 °F 29.79 in NNE 3.2 mph 5.8 mph 88 % 0.00 in
05:42 54.1 °F 50.6 °F 29.79 in NNE 3.0 mph 4.6 mph 88 % 0.00 in
05:47 54.1 °F 50.9 °F 29.79 in NNE 2.5 mph 4.6 mph 89 % 0.00 in
05:52 54.1 °F 50.9 °F 29.79 in NNE 3.2 mph 4.6 mph 89 % 0.00 in
06:02 54.0 °F 50.8 °F 29.79 in NNW 4.3 mph 9.2 mph 89 % 0.00 in
06:07 54.0 °F 50.8 °F 29.79 in North 4.0 mph 4.0 mph 89 % 0.00 in
06:13 54.0 °F 50.8 °F 29.79 in NNE 4.7 mph 8.1 mph 89 % 0.01 in
06:18 54.0 °F 50.8 °F 29.79 in NNE 5.0 mph 7.0 mph 89 % 0.01 in
06:23 54.0 °F 51.1 °F 29.79 in NNE 4.6 mph 8.1 mph 90 % 0.01 in
06:28 54.0 °F 51.1 °F 29.79 in NE 2.5 mph 4.0 mph 90 % 0.01 in
06:33 54.0 °F 51.1 °F 29.79 in NNW 2.5 mph 6.0 mph 90 % 0.02 in
06:38 53.9 °F 51.0 °F 29.79 in NW 1.2 mph 4.6 mph 90 % 0.03 in
06:43 53.9 °F 51.0 °F 29.79 in Calm     90 % 0.03 in
06:48 53.8 °F 50.9 °F 29.79 in WSW 1.1 mph 3.5 mph 90 % 0.04 in
06:53 53.8 °F 51.2 °F 29.79 in WSW 1.0 mph 1.2 mph 91 % 0.04 in
06:58 53.8 °F 51.2 °F 29.80 in WSW 0.1 mph 1.2 mph 91 % 0.05 in
07:04 53.7 °F 51.1 °F 29.80 in Calm     91 % 0.05 in
07:09 53.7 °F 51.1 °F 29.80 in Calm     91 % 0.06 in
07:14 53.7 °F 51.1 °F 29.80 in Calm     91 % 0.05 in
07:19 53.6 °F 51.0 °F 29.79 in Calm     91 % 0.06 in
07:24 53.6 °F 51.3 °F 29.79 in NE 0.7 mph 2.3 mph 92 % 0.06 in
07:29 53.6 °F 51.3 °F 29.80 in NNW 0.7 mph 2.3 mph 92 % 0.07 in
07:34 53.6 °F 51.3 °F 29.80 in NNW 0.1 mph 1.2 mph 92 % 0.06 in
07:39 53.5 °F 51.2 °F 29.80 in Calm     92 % 0.06 in
07:44 53.5 °F 51.2 °F 29.81 in NNW 0.1 mph 1.0 mph 92 % 0.06 in
07:49 53.5 °F 51.2 °F 29.81 in NNW 0.1 mph 2.3 mph 92 % 0.05 in
07:55 53.5 °F 51.2 °F 29.80 in Calm   1.2 mph 92 % 0.06 in
08:00 53.5 °F 51.5 °F 29.80 in Calm     93 % 0.05 in
08:05 53.6 °F 51.6 °F 29.80 in NNW 0.7 mph 2.3 mph 93 % 0.06 in
08:10 53.6 °F 51.6 °F 29.80 in Calm   2.3 mph 93 % 0.05 in
08:15 53.6 °F 51.6 °F 29.80 in ENE 0.1 mph 1.2 mph 93 % 0.05 in
08:20 53.6 °F 51.6 °F 29.80 in ENE 1.1 mph 3.5 mph 93 % 0.04 in
08:25 53.6 °F 51.6 °F 29.80 in NE 0.3 mph 1.2 mph 93 % 0.04 in
08:30 53.7 °F 51.7 °F 29.80 in Calm   1.2 mph 93 % 0.03 in
08:35 53.8 °F 51.8 °F 29.80 in ENE 0.6 mph 2.0 mph 93 % 0.02 in
08:40 53.9 °F 51.9 °F 29.80 in ENE 0.5 mph 2.3 mph 93 % 0.02 in
08:46 54.0 °F 52.0 °F 29.80 in Calm     93 % 0.02 in
08:51 54.1 °F 52.1 °F 29.80 in Calm   2.3 mph 93 % 0.02 in
08:56 54.1 °F 52.1 °F 29.80 in Calm     93 % 0.01 in
09:01 54.2 °F 52.2 °F 29.80 in Calm     93 % 0.01 in
09:06 54.2 °F 52.2 °F 29.80 in Calm     93 % 0.00 in
09:11 54.3 °F 52.3 °F 29.81 in Calm     93 % 0.00 in
09:16 54.4 °F 52.4 °F 29.81 in Calm     93 % 0.00 in
09:21 54.4 °F 52.4 °F 29.81 in Calm     93 % 0.00 in
09:26 54.5 °F 52.5 °F 29.81 in Calm     93 % 0.00 in
09:31 54.6 °F 52.6 °F 29.81 in Calm     93 % 0.00 in
09:37 54.7 °F 52.7 °F 29.81 in Calm     93 % 0.00 in
09:42 55.0 °F 53.3 °F 29.81 in Calm     94 % 0.00 in
09:47 55.4 °F 53.7 °F 29.81 in Calm     94 % 0.00 in
09:52 55.6 °F 53.9 °F 29.81 in ENE 0.9 mph 2.3 mph 94 % 0.00 in
09:57 55.7 °F 54.0 °F 29.81 in ENE 0.1 mph 1.0 mph 94 % 0.00 in
10:07 56.2 °F 54.2 °F 29.81 in ENE 0.1 mph 1.0 mph 93 % 0.00 in
10:12 56.3 °F 54.0 °F 29.81 in Calm   1.2 mph 92 % 0.00 in
10:17 56.6 °F 54.3 °F 29.81 in ENE 0.2 mph 2.0 mph 92 % 0.00 in
10:22 56.6 °F 53.7 °F 29.82 in ENE 2.2 mph 3.5 mph 90 % 0.00 in
10:28 56.8 °F 53.6 °F 29.82 in Calm     89 % 0.00 in
10:33 56.9 °F 54.0 °F 29.82 in Calm     90 % 0.00 in
10:38 57.1 °F 54.2 °F 29.82 in Calm     90 % 0.00 in
10:43 57.3 °F 54.1 °F 29.81 in ENE 0.9 mph 2.3 mph 89 % 0.00 in
10:48 57.6 °F 54.4 °F 29.82 in NE 0.3 mph 2.0 mph 89 % 0.00 in
10:53 57.8 °F 54.3 °F 29.81 in NE 0.4 mph 1.2 mph 88 % 0.00 in
10:58 58.3 °F 53.8 °F 29.82 in ENE 0.7 mph 3.5 mph 85 % 0.00 in
11:03 58.8 °F 54.9 °F 29.82 in East 0.1 mph 2.0 mph 87 % 0.00 in
11:08 59.3 °F 54.1 °F 29.81 in NE 1.1 mph 3.5 mph 83 % 0.00 in
11:13 59.7 °F 54.9 °F 29.82 in NE 1.1 mph 3.0 mph 84 % 0.00 in
11:19 59.9 °F 54.4 °F 29.81 in Calm   1.2 mph 82 % 0.00 in
11:24 60.2 °F 54.7 °F 29.81 in NE 1.1 mph 2.3 mph 82 % 0.00 in
11:29 60.2 °F 52.6 °F 29.81 in NE 1.7 mph 3.5 mph 76 % 0.00 in
11:34 60.4 °F 54.2 °F 29.81 in NNE 2.3 mph 3.5 mph 80 % 0.00 in
11:39 60.4 °F 52.4 °F 29.81 in NE 2.0 mph 3.5 mph 75 % 0.00 in
11:44 60.6 °F 54.4 °F 29.81 in North 1.1 mph 2.3 mph 80 % 0.00 in
11:49 61.0 °F 54.8 °F 29.81 in North 1.5 mph 3.5 mph 80 % 0.00 in
11:54 61.3 °F 53.7 °F 29.81 in ENE 1.2 mph 3.5 mph 76 % 0.00 in
11:59 61.7 °F 54.4 °F 29.80 in ENE 0.7 mph 2.0 mph 77 % 0.00 in
12:05 62.6 °F 55.6 °F 29.80 in NE 1.5 mph 3.0 mph 78 % 0.00 in
12:10 62.9 °F 54.1 °F 29.80 in NNE 1.9 mph 3.5 mph 73 % 0.00 in
12:15 63.0 °F 53.8 °F 29.80 in ENE 1.4 mph 2.3 mph 72 % 0.00 in
12:20 63.1 °F 55.0 °F 29.80 in ENE 2.6 mph 3.5 mph 75 % 0.00 in
12:25 63.0 °F 54.2 °F 29.80 in NE 1.7 mph 3.5 mph 73 % 0.00 in
12:30 62.6 °F 52.3 °F 29.80 in ENE 2.6 mph 3.5 mph 69 % 0.00 in
12:35 62.5 °F 53.7 °F 29.80 in NNE 1.7 mph 3.5 mph 73 % 0.00 in
12:40 62.8 °F 54.4 °F 29.80 in NNE 0.4 mph 3.5 mph 74 % 0.00 in
12:45 63.0 °F 52.7 °F 29.79 in ENE 0.2 mph 2.3 mph 69 % 0.00 in
12:50 63.0 °F 51.5 °F 29.80 in ENE 1.7 mph 3.5 mph 66 % 0.00 in
12:56 63.1 °F 53.9 °F 29.80 in NNE 1.4 mph 3.0 mph 72 % 0.00 in
13:01 63.5 °F 54.7 °F 29.80 in NNE 0.8 mph 2.3 mph 73 % 0.00 in
13:06 63.7 °F 51.7 °F 29.80 in NE 1.6 mph 3.5 mph 65 % 0.00 in
13:11 63.8 °F 51.8 °F 29.80 in NE 1.7 mph 3.5 mph 65 % 0.00 in
13:16 64.0 °F 53.2 °F 29.80 in NE 1.2 mph 3.5 mph 68 % 0.00 in
13:21 64.2 °F 53.0 °F 29.80 in ENE 0.9 mph 2.3 mph 67 % 0.00 in
13:26 64.6 °F 53.0 °F 29.80 in NE 1.3 mph 2.3 mph 66 % 0.00 in
13:31 64.9 °F 52.4 °F 29.80 in ENE 0.6 mph 1.2 mph 64 % 0.00 in
13:36 65.3 °F 53.2 °F 29.80 in ENE 1.8 mph 3.0 mph 65 % 0.00 in
13:41 65.6 °F 52.7 °F 29.80 in SE 1.2 mph 2.0 mph 63 % 0.00 in
13:47 66.0 °F 55.1 °F 29.80 in SE 1.2 mph 3.5 mph 68 % 0.00 in
13:57 67.4 °F 56.5 °F 29.79 in SSE 1.1 mph 3.5 mph 68 % 0.00 in
14:02 68.0 °F 55.4 °F 29.79 in ESE 1.7 mph 2.3 mph 64 % 0.00 in
14:07 68.4 °F 57.4 °F 29.79 in ESE 1.3 mph 3.5 mph 68 % 0.00 in
14:12 68.6 °F 56.4 °F 29.79 in ESE 1.1 mph 2.3 mph 65 % 0.00 in
14:17 69.0 °F 56.7 °F 29.79 in SE 1.5 mph 2.3 mph 65 % 0.00 in
14:22 69.4 °F 56.7 °F 29.79 in SSE 2.4 mph 3.5 mph 64 % 0.00 in
14:27 69.6 °F 55.6 °F 29.79 in East 0.6 mph 2.3 mph 61 % 0.00 in
14:32 70.0 °F 56.4 °F 29.79 in East 0.6 mph 2.0 mph 62 % 0.00 in
14:38 70.2 °F 57.0 °F 29.79 in SSE 1.5 mph 2.3 mph 63 % 0.00 in
14:43 70.4 °F 55.8 °F 29.79 in SE 1.5 mph 3.5 mph 60 % 0.00 in
14:48 70.5 °F 55.5 °F 29.79 in SE 1.7 mph 3.5 mph 59 % 0.00 in
14:58 71.2 °F 56.1 °F 29.79 in NE 0.4 mph 1.2 mph 59 % 0.00 in
15:03 71.7 °F 55.2 °F 29.78 in NE 0.8 mph 2.0 mph 56 % 0.00 in
15:08 72.1 °F 55.0 °F 29.78 in NE 2.7 mph 4.0 mph 55 % 0.00 in
15:18 72.1 °F 55.0 °F 29.78 in ENE 0.6 mph 2.0 mph 55 % 0.00 in
15:23 72.2 °F 55.6 °F 29.78 in Calm   1.2 mph 56 % 0.00 in
15:29 72.1 °F 54.0 °F 29.78 in East 0.9 mph 4.6 mph 53 % 0.00 in
15:34 71.9 °F 54.9 °F 29.78 in NE 1.1 mph 3.5 mph 55 % 0.00 in
15:39 71.9 °F 54.9 °F 29.78 in Calm   1.2 mph 55 % 0.00 in
15:44 71.8 °F 54.3 °F 29.78 in SE 0.5 mph 3.5 mph 54 % 0.00 in
15:49 71.7 °F 55.2 °F 29.78 in Calm   1.2 mph 56 % 0.00 in
15:59 71.8 °F 54.8 °F 29.78 in ENE 1.8 mph 3.5 mph 55 % 0.00 in
16:04 71.7 °F 54.2 °F 29.78 in NE 1.1 mph 2.3 mph 54 % 0.00 in
16:09 71.7 °F 55.2 °F 29.78 in NE 0.7 mph 2.3 mph 56 % 0.00 in
16:14 71.7 °F 55.2 °F 29.78 in NE 1.0 mph 2.3 mph 56 % 0.00 in
16:20 71.8 °F 54.3 °F 29.78 in NE 0.8 mph 2.3 mph 54 % 0.00 in
16:25 72.0 °F 55.4 °F 29.78 in ENE 0.4 mph 2.3 mph 56 % 0.00 in
16:30 72.2 °F 54.6 °F 29.78 in NE 0.4 mph 3.5 mph 54 % 0.00 in
16:35 72.4 °F 54.8 °F 29.78 in ENE 2.0 mph 5.8 mph 54 % 0.00 in
16:40 72.4 °F 53.2 °F 29.78 in ENE 3.5 mph 5.8 mph 51 % 0.00 in
16:45 72.4 °F 54.8 °F 29.79 in NE 0.8 mph 2.3 mph 54 % 0.00 in
16:50 72.4 °F 53.8 °F 29.78 in ENE 2.6 mph 4.6 mph 52 % 0.00 in
16:55 72.2 °F 53.6 °F 29.78 in NE 1.6 mph 3.5 mph 52 % 0.00 in
17:00 72.0 °F 53.4 °F 29.78 in ENE 3.0 mph 4.6 mph 52 % 0.00 in
17:05 71.9 °F 53.3 °F 29.79 in NE 2.6 mph 3.5 mph 52 % 0.00 in
17:11 71.8 °F 54.3 °F 29.79 in NE 1.5 mph 1.5 mph 54 % 0.00 in
17:16 71.7 °F 54.2 °F 29.79 in NE 3.1 mph 5.0 mph 54 % 0.00 in
17:21 71.6 °F 54.1 °F 29.78 in ENE 1.1 mph 3.5 mph 54 % 0.00 in
17:26 71.7 °F 55.2 °F 29.78 in SE 2.1 mph 5.8 mph 56 % 0.00 in
17:31 71.6 °F 56.5 °F 29.78 in SE 3.5 mph 5.8 mph 59 % 0.00 in
17:36 71.6 °F 56.5 °F 29.78 in SE 0.2 mph 1.2 mph 59 % 0.00 in
17:41 71.6 °F 55.1 °F 29.78 in SE 0.1 mph 1.2 mph 56 % 0.00 in
17:46 71.5 °F 55.0 °F 29.78 in NNE 0.4 mph 1.2 mph 56 % 0.00 in
17:51 71.2 °F 54.7 °F 29.78 in NNE 0.6 mph 3.5 mph 56 % 0.00 in
17:56 70.8 °F 55.8 °F 29.78 in NNE 0.8 mph 2.3 mph 59 % 0.00 in
18:02 70.5 °F 54.5 °F 29.78 in NNE 0.3 mph 1.2 mph 57 % 0.00 in
18:07 70.2 °F 53.3 °F 29.78 in Calm   1.2 mph 55 % 0.00 in
18:12 69.9 °F 54.4 °F 29.78 in Calm     58 % 0.00 in
18:17 69.6 °F 54.2 °F 29.78 in NNE 1.0 mph 2.3 mph 58 % 0.00 in
18:27 69.3 °F 55.3 °F 29.79 in Calm     61 % 0.00 in
18:32 69.3 °F 56.2 °F 29.79 in Calm     63 % 0.00 in
18:37 69.2 °F 56.5 °F 29.79 in SSW 2.1 mph 3.5 mph 64 % 0.00 in
18:42 69.1 °F 56.4 °F 29.79 in SSW 1.6 mph 3.5 mph 64 % 0.00 in
18:47 68.9 °F 56.6 °F 29.79 in Calm   3.5 mph 65 % 0.00 in
18:53 68.7 °F 56.9 °F 29.79 in Calm     66 % 0.00 in
18:58 68.5 °F 56.7 °F 29.79 in Calm     66 % 0.00 in
19:03 68.3 °F 56.9 °F 29.80 in Calm     67 % 0.00 in
19:08 68.1 °F 57.1 °F 29.80 in Calm     68 % 0.00 in
19:13 67.9 °F 56.9 °F 29.80 in Calm     68 % 0.00 in
19:18 67.7 °F 56.8 °F 29.80 in WSW 0.1 mph 2.3 mph 68 % 0.00 in
19:23 67.4 °F 56.9 °F 29.80 in Calm     69 % 0.00 in
19:28 67.3 °F 56.8 °F 29.80 in Calm     69 % 0.00 in
19:33 67.1 °F 57.0 °F 29.80 in WSW 0.1 mph 1.2 mph 70 % 0.00 in
19:38 66.8 °F 56.7 °F 29.81 in Calm     70 % 0.00 in
19:44 66.6 °F 56.9 °F 29.81 in Calm     71 % 0.00 in
19:49 66.4 °F 56.7 °F 29.82 in Calm     71 % 0.00 in
19:54 66.2 °F 56.5 °F 29.82 in Calm     71 % 0.00 in
19:59 65.9 °F 56.6 °F 29.82 in Calm     72 % 0.00 in
20:04 65.7 °F 56.4 °F 29.82 in Calm     72 % 0.00 in
20:09 65.4 °F 56.1 °F 29.83 in Calm     72 % 0.00 in
20:14 65.1 °F 56.6 °F 29.83 in Calm     74 % 0.00 in
20:19 64.8 °F 56.7 °F 29.83 in Calm   1.2 mph 75 % 0.00 in
20:24 64.4 °F 56.3 °F 29.83 in Calm     75 % 0.00 in
20:29 64.2 °F 56.1 °F 29.84 in South 0.1 mph 2.3 mph 75 % 0.00 in
20:35 64.0 °F 55.9 °F 29.84 in SSE 1.0 mph 2.3 mph 75 % 0.00 in
20:40 63.7 °F 55.6 °F 29.84 in Calm     75 % 0.00 in
20:45 63.5 °F 55.4 °F 29.84 in Calm   1.2 mph 75 % 0.00 in
20:50 63.3 °F 55.2 °F 29.84 in Calm   1.0 mph 75 % 0.00 in
20:55 63.1 °F 55.4 °F 29.85 in Calm   1.2 mph 76 % 0.00 in
21:00 62.9 °F 55.2 °F 29.85 in Calm   1.0 mph 76 % 0.00 in
21:05 62.7 °F 55.4 °F 29.85 in SSE 0.1 mph 1.2 mph 77 % 0.00 in
21:10 62.5 °F 55.2 °F 29.85 in Calm     77 % 0.00 in
21:20 61.9 °F 55.3 °F 29.86 in SSE 0.2 mph 1.2 mph 79 % 0.00 in
21:26 61.6 °F 55.0 °F 29.86 in Calm   2.3 mph 79 % 0.00 in
21:31 61.3 °F 55.4 °F 29.86 in SE 0.8 mph 6.0 mph 81 % 0.00 in
21:36 61.0 °F 55.5 °F 29.86 in SSE 0.5 mph 1.2 mph 82 % 0.00 in
21:41 60.7 °F 55.5 °F 29.87 in SSE 0.4 mph 3.5 mph 83 % 0.00 in
21:46 60.5 °F 55.3 °F 29.87 in SSE 0.2 mph 1.2 mph 83 % 0.00 in
21:51 60.4 °F 55.2 °F 29.87 in SSE 0.3 mph 1.2 mph 83 % 0.00 in
21:56 60.1 °F 54.9 °F 29.87 in SSE 1.0 mph 3.5 mph 83 % 0.00 in
22:01 59.9 °F 54.7 °F 29.87 in SSE 1.0 mph 3.5 mph 83 % 0.00 in
22:06 59.7 °F 54.5 °F 29.87 in South 2.4 mph 3.5 mph 83 % 0.00 in
22:11 59.5 °F 54.3 °F 29.87 in South 0.3 mph 2.0 mph 83 % 0.00 in
22:17 59.3 °F 54.1 °F 29.87 in SE 0.5 mph 2.3 mph 83 % 0.00 in
22:22 59.2 °F 54.0 °F 29.87 in South 1.5 mph 9.2 mph 83 % 0.00 in
22:27 59.0 °F 53.8 °F 29.87 in South 0.7 mph 3.5 mph 83 % 0.00 in
22:32 58.9 °F 53.7 °F 29.87 in SSE 1.2 mph 3.5 mph 83 % 0.00 in
22:37 58.7 °F 53.5 °F 29.87 in South 0.1 mph 3.5 mph 83 % 0.00 in
22:42 58.7 °F 53.9 °F 29.87 in SE 1.3 mph 7.0 mph 84 % 0.00 in
22:47 58.6 °F 53.8 °F 29.87 in SE 2.8 mph 4.6 mph 84 % 0.00 in
22:57 58.4 °F 53.9 °F 29.87 in SSE 1.3 mph 3.5 mph 85 % 0.00 in
23:02 58.3 °F 53.8 °F 29.86 in South 0.1 mph 4.6 mph 85 % 0.00 in
23:08 58.2 °F 53.7 °F 29.86 in SSE 1.0 mph 3.5 mph 85 % 0.00 in
23:13 58.1 °F 53.6 °F 29.87 in SSE 0.3 mph 1.2 mph 85 % 0.00 in
23:18 58.0 °F 53.8 °F 29.86 in SSE 0.8 mph 2.3 mph 86 % 0.00 in
23:23 57.9 °F 53.7 °F 29.87 in SSE 0.2 mph 2.0 mph 86 % 0.00 in
23:28 57.8 °F 53.6 °F 29.87 in SSE 0.8 mph 2.3 mph 86 % 0.00 in
23:33 57.7 °F 53.5 °F 29.87 in South 1.4 mph 3.5 mph 86 % 0.00 in
23:38 57.6 °F 53.4 °F 29.87 in SE 1.4 mph 3.5 mph 86 % 0.00 in
23:43 57.5 °F 53.3 °F 29.87 in SE 0.5 mph 2.3 mph 86 % 0.00 in
23:48 57.5 °F 53.3 °F 29.87 in SE 0.8 mph 2.3 mph 86 % 0.00 in
23:59 57.4 °F 53.2 °F 29.87 in West 1.5 mph 1.5 mph 86 % 0.00 in
Crab Meadow Weather
Compliments of Weather Underground - 2.75 mb

Script developed by  Jim McMurry - jmcmurry@mwt.net Adapted for the template by  Wim van der Kuil - Leuven-Template.eu

Weather Terms: Frost Advisory - Widespread frost during the growing season. Frost generally occurs with fair skies and light winds.